Time;durP1;ratioP1;P1;durP2;ratioP2;P2;SDS_P1;SDS_P2;PMS_P1;PMS_P2;Temp;Humidity;BMP_temperature;BMP_pressure;BME280_temperature;BME280_humidity;BME280_pressure;Samples;Min_cycle;Max_cycle;Signal;HPM_P1;HPM_P2
2022/09/05 00:01:55;;;;;;;5.00;2.50;;;19.70;99.90;;;;;;5067156;28;20405;-80
2022/09/05 00:04:51;;;;;;;7.78;2.78;;;19.70;99.90;;;;;;5071433;28;20770;-79
2022/09/05 00:07:22;;;;;;;5.45;2.58;;;19.70;99.90;;;;;;5064942;28;20430;-79
2022/09/05 00:10:12;;;;;;;5.95;2.30;;;19.60;99.90;;;;;;5067315;28;20397;-78
2022/09/05 00:12:39;;;;;;;5.38;2.28;;;19.60;99.90;;;;;;5064180;28;20111;-79
2022/09/05 00:15:42;;;;;;;6.50;2.40;;;19.60;99.90;;;;;;5065979;28;20037;-79
2022/09/05 00:18:14;;;;;;;8.40;2.42;;;19.50;99.90;;;;;;5063316;28;20080;-79
2022/09/05 00:21:02;;;;;;;5.30;2.30;;;19.50;99.90;;;;;;5044198;28;20036;-79
2022/09/05 00:23:46;;;;;;;5.63;2.35;;;19.50;99.90;;;;;;5065681;28;20055;-79
2022/09/05 00:26:54;;;;;;;8.80;2.53;;;19.50;99.90;;;;;;5060821;28;20774;-79
2022/09/05 00:29:30;;;;;;;9.05;2.92;;;19.50;99.90;;;;;;5013120;28;20123;-80
2022/09/05 00:32:20;;;;;;;6.78;2.60;;;19.40;99.90;;;;;;5068134;28;20051;-80
2022/09/05 00:35:20;;;;;;;5.22;2.50;;;19.40;99.90;;;;;;5066376;28;20052;-79
2022/09/05 00:37:49;;;;;;;5.82;2.70;;;19.30;99.90;;;;;;5065664;28;20039;-79
2022/09/05 00:40:27;;;;;;;7.35;2.70;;;19.30;99.90;;;;;;5064354;28;20091;-80
2022/09/05 00:43:04;;;;;;;7.63;3.10;;;19.30;99.90;;;;;;5062790;28;20155;-80
2022/09/05 00:45:42;;;;;;;6.85;2.70;;;19.30;99.90;;;;;;5066590;28;20075;-80
2022/09/05 00:48:31;;;;;;;7.57;2.88;;;19.20;99.90;;;;;;5064832;28;20048;-79
2022/09/05 00:51:15;;;;;;;5.05;2.90;;;19.20;99.90;;;;;;5062954;28;20686;-79
2022/09/05 00:53:48;;;;;;;5.35;3.15;;;19.10;99.90;;;;;;5063169;28;20036;-80
2022/09/05 00:56:36;;;;;;;9.15;2.88;;;19.10;99.90;;;;;;5052792;28;20041;-79
2022/09/05 00:59:28;;;;;;;7.75;3.08;;;19.00;99.90;;;;;;5066190;28;20048;-80
2022/09/05 01:02:21;;;;;;;8.15;3.08;;;19.00;99.90;;;;;;5040103;28;20118;-79
2022/09/05 01:05:15;;;;;;;6.85;2.80;;;19.00;99.90;;;;;;5063222;28;20041;-80
2022/09/05 01:07:49;;;;;;;6.18;3.13;;;18.90;99.90;;;;;;5062244;28;20339;-79
2022/09/05 01:10:38;;;;;;;6.72;2.95;;;18.90;99.90;;;;;;5062976;28;20521;-79
2022/09/05 01:13:29;;;;;;;8.88;3.08;;;18.80;99.90;;;;;;5063146;28;20122;-80
2022/09/05 01:16:42;;;;;;;12.83;3.43;;;18.80;99.90;;;;;;5063321;28;20526;-79
2022/09/05 01:19:29;;;;;;;8.07;2.45;;;18.80;99.90;;;;;;5017164;28;20358;-79
2022/09/05 01:22:13;;;;;;;8.30;2.90;;;18.80;99.90;;;;;;5056971;28;20429;-79
2022/09/05 01:25:01;;;;;;;7.85;2.58;;;18.70;99.90;;;;;;5062760;28;20037;-79
2022/09/05 01:27:39;;;;;;;8.68;3.15;;;18.70;99.90;;;;;;5064320;28;20090;-79
2022/09/05 01:30:17;;;;;;;5.68;2.90;;;18.70;99.90;;;;;;5062389;28;20040;-79
2022/09/05 01:33:01;;;;;;;7.60;3.08;;;18.70;99.90;;;;;;5062175;28;20409;-79
2022/09/05 01:35:33;;;;;;;7.95;3.10;;;18.60;99.90;;;;;;5061967;28;20055;-79
2022/09/05 01:38:26;;;;;;;7.93;2.85;;;18.60;99.90;;;;;;5063309;28;20051;-79
2022/09/05 01:41:10;;;;;;;8.05;2.90;;;18.60;99.90;;;;;;5062947;28;20094;-79
2022/09/05 01:43:50;;;;;;;6.85;3.00;;;18.60;99.90;;;;;;5067305;28;20051;-78
2022/09/05 01:46:34;;;;;;;9.10;3.33;;;18.60;99.90;;;;;;5051313;28;20052;-79
2022/09/05 01:49:06;;;;;;;6.00;2.78;;;18.60;99.90;;;;;;5069092;28;20037;-79
2022/09/05 01:52:07;;;;;;;8.65;3.03;;;18.60;99.90;;;;;;5066446;28;20517;-79
2022/09/05 01:55:02;;;;;;;6.63;2.90;;;18.50;99.90;;;;;;5069882;28;20037;-80
2022/09/05 01:57:39;;;;;;;7.45;3.30;;;18.50;99.90;;;;;;5068047;28;20048;-79
2022/09/05 02:00:12;;;;;;;8.10;3.03;;;18.50;99.90;;;;;;5056970;28;20045;-79
2022/09/05 02:02:46;;;;;;;8.65;3.60;;;18.50;99.90;;;;;;5074770;28;20056;-78
2022/09/05 02:05:29;;;;;;;8.88;3.15;;;18.50;99.90;;;;;;5072069;28;20052;-79
2022/09/05 02:08:22;;;;;;;7.70;3.42;;;18.40;99.90;;;;;;5071974;28;20115;-79
2022/09/05 02:10:57;;;;;;;10.48;3.60;;;18.40;99.90;;;;;;5066975;28;20048;-79
2022/09/05 02:13:35;;;;;;;5.32;3.03;;;18.30;99.90;;;;;;5050884;28;20055;-79
2022/09/05 02:16:03;;;;;;;8.43;3.45;;;18.30;99.90;;;;;;5067303;28;20415;-79
2022/09/05 02:18:35;;;;;;;8.15;3.28;;;18.30;99.90;;;;;;5069499;28;20453;-80
2022/09/05 02:21:07;;;;;;;8.48;3.65;;;18.20;99.90;;;;;;5066720;28;20061;-78
2022/09/05 02:23:45;;;;;;;6.82;3.22;;;18.20;99.90;;;;;;5064263;28;20444;-79
2022/09/05 02:26:33;;;;;;;6.28;3.53;;;18.20;99.90;;;;;;5066393;28;20052;-79
2022/09/05 02:29:49;;;;;;;7.32;3.58;;;18.10;99.90;;;;;;5068290;28;20072;-79
2022/09/05 02:32:40;;;;;;;8.63;2.97;;;18.10;99.90;;;;;;5040759;28;20131;-80
2022/09/05 02:35:20;;;;;;;8.63;3.17;;;18.10;99.90;;;;;;5066953;28;20036;-79
2022/09/05 02:37:52;;;;;;;7.50;3.65;;;18.10;99.90;;;;;;5069793;28;20060;-78
2022/09/05 02:40:36;;;;;;;8.52;3.83;;;18.00;99.90;;;;;;5068114;28;20370;-78
2022/09/05 02:43:26;;;;;;;8.52;3.60;;;18.00;99.90;;;;;;5069073;28;20488;-78
2022/09/05 02:46:04;;;;;;;7.68;3.80;;;17.90;99.90;;;;;;5080668;28;20080;-78
2022/09/05 02:48:53;;;;;;;8.18;3.63;;;17.90;99.90;;;;;;5070356;28;20037;-79
2022/09/05 02:51:29;;;;;;;6.25;3.17;;;17.80;99.90;;;;;;5066748;28;20041;-71
2022/09/05 02:54:09;;;;;;;7.65;3.33;;;17.80;99.90;;;;;;5062754;28;20052;-71
2022/09/05 02:56:44;;;;;;;8.35;4.00;;;17.80;99.90;;;;;;5064266;28;20063;-71
2022/09/05 02:59:38;;;;;;;8.23;3.45;;;17.70;99.90;;;;;;5065677;28;20037;-71
2022/09/05 03:02:30;;;;;;;8.27;3.70;;;17.70;99.90;;;;;;5064325;28;20052;-70
2022/09/05 03:05:08;;;;;;;6.22;3.25;;;17.60;99.90;;;;;;5070418;28;20045;-71
2022/09/05 03:08:07;;;;;;;7.78;4.00;;;17.60;99.90;;;;;;5064955;28;20448;-71
2022/09/05 03:10:55;;;;;;;10.60;4.10;;;17.60;99.90;;;;;;5065831;28;20044;-71
2022/09/05 03:13:39;;;;;;;8.63;4.20;;;17.50;99.90;;;;;;5064909;28;20109;-71
2022/09/05 03:16:35;;;;;;;7.97;3.40;;;17.50;99.90;;;;;;5045807;28;20040;-71
2022/09/05 03:19:38;;;;;;;7.07;3.60;;;17.40;99.90;;;;;;5065453;28;20098;-70
2022/09/05 03:22:42;;;;;;;7.45;3.97;;;17.40;99.90;;;;;;5062921;28;20099;-71
2022/09/05 03:25:29;;;;;;;7.80;3.72;;;17.40;99.90;;;;;;5062746;28;20044;-70
2022/09/05 03:28:22;;;;;;;7.20;4.13;;;17.30;99.90;;;;;;5064224;28;20086;-70
2022/09/05 03:31:17;;;;;;;7.78;3.42;;;17.30;99.90;;;;;;5062243;28;20051;-71
2022/09/05 03:34:02;;;;;;;7.45;3.80;;;17.20;99.90;;;;;;5066446;28;20041;-70
2022/09/05 03:36:45;;;;;;;7.03;3.97;;;17.20;99.90;;;;;;5063851;28;20047;-71
2022/09/05 03:39:53;;;;;;;7.85;4.13;;;17.20;99.90;;;;;;5063033;28;20717;-70
2022/09/05 03:42:28;;;;;;;8.20;3.78;;;17.20;99.90;;;;;;5053260;28;20087;-71
2022/09/05 03:45:25;;;;;;;8.10;3.90;;;17.10;99.90;;;;;;5064638;28;20672;-70
2022/09/05 03:48:09;;;;;;;9.20;3.85;;;17.10;99.90;;;;;;5064456;28;20037;-71
2022/09/05 03:50:43;;;;;;;10.10;4.25;;;17.10;99.90;;;;;;5063023;28;20059;-70
2022/09/05 03:53:35;;;;;;;7.18;3.92;;;17.10;99.90;;;;;;5063696;28;20891;-71
2022/09/05 03:56:18;;;;;;;7.38;4.25;;;17.00;99.90;;;;;;5062749;28;20072;-71
2022/09/05 03:59:21;;;;;;;7.68;3.65;;;17.00;99.90;;;;;;5049563;28;20094;-71
2022/09/05 04:01:52;;;;;;;7.53;3.90;;;16.90;99.90;;;;;;5080692;28;20048;-71
2022/09/05 04:05:08;;;;;;;7.93;4.28;;;16.90;99.90;;;;;;5046700;28;20059;-70
2022/09/05 04:07:42;;;;;;;6.85;4.20;;;16.90;99.90;;;;;;5019564;28;20160;-71
2022/09/05 04:10:35;;;;;;;7.82;4.43;;;16.90;99.90;;;;;;5054831;28;20067;-71
2022/09/05 04:13:07;;;;;;;7.60;4.85;;;16.80;99.90;;;;;;5063715;28;20056;-70
2022/09/05 04:15:41;;;;;;;10.60;4.47;;;16.80;99.90;;;;;;5065094;28;20053;-71
2022/09/05 04:18:16;;;;;;;9.73;4.10;;;16.80;99.90;;;;;;5064055;28;20085;-70
2022/09/05 04:21:01;;;;;;;6.40;4.30;;;16.70;99.90;;;;;;5048274;28;20508;-70
2022/09/05 04:23:44;;;;;;;8.98;4.60;;;16.80;99.90;;;;;;5061594;28;20684;-71
2022/09/05 04:26:48;;;;;;;10.70;4.60;;;16.70;99.90;;;;;;5060307;28;20093;-71
2022/09/05 04:29:38;;;;;;;8.65;4.50;;;16.70;99.90;;;;;;5061298;28;20124;-70
2022/09/05 04:32:34;;;;;;;7.78;4.88;;;16.70;99.90;;;;;;5054989;28;20413;-71
2022/09/05 04:35:24;;;;;;;9.32;3.95;;;16.70;99.90;;;;;;5061265;28;20053;-71
2022/09/05 04:38:08;;;;;;;7.65;4.93;;;16.60;99.90;;;;;;5044600;28;20029;-70
2022/09/05 04:40:46;;;;;;;8.75;4.78;;;16.60;99.90;;;;;;5063517;28;20574;-70
2022/09/05 04:43:41;;;;;;;8.77;4.40;;;16.50;99.90;;;;;;5062798;28;20137;-70
2022/09/05 04:46:14;;;;;;;10.82;5.03;;;16.50;99.90;;;;;;5054686;28;20049;-71
2022/09/05 04:48:58;;;;;;;9.68;5.03;;;16.50;99.90;;;;;;5057372;28;20409;-71
2022/09/05 04:52:01;;;;;;;8.95;5.07;;;16.40;99.90;;;;;;5040618;28;20528;-70
2022/09/05 04:54:47;;;;;;;8.00;4.82;;;16.40;99.90;;;;;;5044359;28;20121;-70
2022/09/05 04:57:21;;;;;;;9.93;5.25;;;16.40;99.90;;;;;;5078595;28;20041;-71
2022/09/05 04:59:56;;;;;;;8.25;5.38;;;16.30;99.90;;;;;;5062737;28;20297;-70
2022/09/05 05:02:45;;;;;;;9.15;5.60;;;16.40;99.90;;;;;;5058707;28;20566;-71
2022/09/05 05:05:34;;;;;;;7.60;4.32;;;16.30;99.90;;;;;;5058082;28;20044;-71
2022/09/05 05:08:19;;;;;;;9.07;5.00;;;16.30;99.90;;;;;;5058723;28;20572;-70
2022/09/05 05:10:56;;;;;;;7.85;5.10;;;16.30;99.90;;;;;;5054078;28;20582;-70
2022/09/05 05:13:43;;;;;;;8.95;5.15;;;16.30;99.90;;;;;;5057327;28;20383;-70
2022/09/05 05:16:23;;;;;;;8.13;5.25;;;16.20;99.90;;;;;;5052422;28;20121;-70
2022/09/05 05:19:04;;;;;;;8.40;5.10;;;16.20;99.90;;;;;;5059795;28;20191;-71
2022/09/05 05:21:31;;;;;;;8.68;5.13;;;16.20;99.90;;;;;;5060530;28;20409;-71
2022/09/05 05:24:20;;;;;;;8.00;4.43;;;16.20;99.90;;;;;;5064322;28;20044;-71
2022/09/05 05:27:07;;;;;;;7.38;5.00;;;16.20;99.90;;;;;;5063033;28;20040;-70
2022/09/05 05:29:56;;;;;;;9.57;5.00;;;16.20;99.90;;;;;;5072902;28;20051;-71
2022/09/05 05:32:29;;;;;;;8.73;4.78;;;16.10;99.90;;;;;;5066846;28;20420;-70
2022/09/05 05:35:07;;;;;;;8.20;4.57;;;16.20;99.90;;;;;;5051045;28;20386;-70
2022/09/05 05:37:42;;;;;;;12.13;5.18;;;16.20;99.90;;;;;;5048886;28;20048;-70
2022/09/05 05:40:25;;;;;;;9.43;5.20;;;16.20;99.90;;;;;;5047386;28;20401;-70
2022/09/05 05:42:52;;;;;;;11.98;5.63;;;16.20;99.90;;;;;;5063925;28;20401;-70
2022/09/05 05:45:25;;;;;;;9.05;5.55;;;16.10;99.90;;;;;;5066965;28;20501;-70
2022/09/05 05:48:10;;;;;;;9.48;5.68;;;16.20;99.90;;;;;;5050974;28;20448;-70
2022/09/05 05:51:02;;;;;;;8.60;5.50;;;16.20;99.90;;;;;;5061160;28;20052;-70
2022/09/05 05:53:54;;;;;;;9.10;5.32;;;16.30;99.90;;;;;;5055819;28;20574;-71
2022/09/05 05:56:25;;;;;;;8.45;5.85;;;16.40;99.90;;;;;;5021698;28;20175;-70
2022/09/05 05:58:56;;;;;;;8.25;5.40;;;16.40;99.90;;;;;;5058815;28;20188;-70
2022/09/05 06:01:44;;;;;;;11.50;5.57;;;16.40;99.90;;;;;;5067721;28;20086;-71
2022/09/05 06:04:22;;;;;;;7.43;5.20;;;16.50;99.90;;;;;;5059830;28;20128;-70
2022/09/05 06:07:15;;;;;;;9.40;5.57;;;16.50;99.90;;;;;;5068645;28;20055;-71
2022/09/05 06:10:05;;;;;;;11.27;5.80;;;16.50;99.90;;;;;;5051345;28;20119;-70
2022/09/05 06:12:50;;;;;;;9.40;5.75;;;16.50;99.90;;;;;;5068749;28;20055;-71
2022/09/05 06:15:27;;;;;;;9.00;6.10;;;16.60;99.90;;;;;;5069182;28;20443;-71
2022/09/05 06:18:16;;;;;;;10.80;5.75;;;16.60;99.90;;;;;;5069301;28;20047;-71
2022/09/05 06:20:57;;;;;;;10.70;5.90;;;16.60;99.90;;;;;;5070986;28;20048;-71
2022/09/05 06:23:38;;;;;;;12.85;5.53;;;16.60;99.90;;;;;;5065864;28;20056;-71
2022/09/05 06:26:25;;;;;;;8.68;5.68;;;16.70;99.90;;;;;;5063645;28;20148;-71
2022/09/05 06:29:06;;;;;;;12.60;5.90;;;16.80;99.90;;;;;;5067640;28;20409;-71
2022/09/05 06:32:17;;;;;;;9.48;5.85;;;16.80;99.90;;;;;;5064763;28;20049;-71
2022/09/05 06:35:25;;;;;;;11.73;5.65;;;16.90;99.90;;;;;;5039137;28;20502;-71
2022/09/05 06:38:12;;;;;;;8.27;5.78;;;17.00;99.90;;;;;;5050811;28;20136;-71
2022/09/05 06:40:57;;;;;;;10.90;5.93;;;17.00;99.90;;;;;;5051064;28;20041;-71
2022/09/05 06:43:49;;;;;;;8.60;5.90;;;17.10;99.90;;;;;;5065783;28;20436;-71
2022/09/05 06:46:22;;;;;;;11.35;5.90;;;17.20;99.90;;;;;;5072058;28;20053;-71
2022/09/05 06:49:16;;;;;;;11.00;6.03;;;17.30;99.90;;;;;;5064872;28;20039;-70
2022/09/05 06:52:21;;;;;;;11.50;5.72;;;17.30;99.90;;;;;;5047456;28;20048;-71
2022/09/05 06:55:21;;;;;;;8.38;5.72;;;17.40;99.90;;;;;;5044436;28;20087;-71
2022/09/05 06:58:02;;;;;;;9.45;6.20;;;17.50;99.90;;;;;;5064842;28;20127;-71
2022/09/05 07:00:42;;;;;;;9.55;5.20;;;17.60;99.90;;;;;;5062233;28;20067;-71
2022/09/05 07:03:37;;;;;;;11.68;5.07;;;17.60;99.90;;;;;;5043013;28;20072;-71
2022/09/05 07:06:08;;;;;;;9.57;5.68;;;17.70;99.90;;;;;;5062186;28;20056;-71
2022/09/05 07:08:44;;;;;;;9.05;5.82;;;17.70;99.90;;;;;;5044058;28;20040;-71
2022/09/05 07:11:20;;;;;;;10.70;5.40;;;17.80;99.90;;;;;;5058359;28;20212;-71
2022/09/05 07:14:09;;;;;;;8.02;5.30;;;17.90;99.90;;;;;;5064047;28;20124;-71
2022/09/05 07:16:43;;;;;;;9.13;6.00;;;18.00;99.90;;;;;;5067346;28;20045;-71
2022/09/05 07:19:27;;;;;;;10.75;5.68;;;18.10;99.90;;;;;;5062170;28;20110;-70
2022/09/05 07:22:01;;;;;;;10.73;5.60;;;18.20;99.90;;;;;;5065075;28;20561;-71
2022/09/05 07:24:30;;;;;;;10.15;5.43;;;18.40;99.90;;;;;;5078809;28;20047;-71
2022/09/05 07:26:58;;;;;;;7.57;5.22;;;18.60;99.90;;;;;;5061661;28;20044;-70
2022/09/05 07:29:31;;;;;;;10.57;5.65;;;18.80;99.90;;;;;;5064988;28;20105;-71
2022/09/05 07:31:59;;;;;;;8.10;4.85;;;19.10;99.90;;;;;;5066344;28;20080;-71
2022/09/05 07:34:36;;;;;;;10.38;4.55;;;19.30;99.90;;;;;;5065274;28;20086;-71
2022/09/05 07:37:23;;;;;;;9.23;4.63;;;19.60;99.90;;;;;;5064942;28;20730;-70
2022/09/05 07:39:58;;;;;;;7.90;4.70;;;19.80;99.90;;;;;;5066034;28;20048;-71
2022/09/05 07:42:49;;;;;;;7.70;4.60;;;20.00;99.90;;;;;;5064106;28;20491;-70
2022/09/05 07:45:24;;;;;;;;;;;20.20;99.90;;;;;;5063307;28;20044;-70
2022/09/05 07:48:10;;;;;;;10.85;4.72;;;20.30;99.90;;;;;;5064636;28;20376;-70
2022/09/05 07:50:56;;;;;;;7.47;4.78;;;20.50;99.90;;;;;;5063693;28;20585;-71
2022/09/05 07:53:23;;;;;;;9.18;5.00;;;20.70;99.90;;;;;;5060538;28;20137;-71
2022/09/05 07:55:58;;;;;;;8.15;4.68;;;20.80;99.90;;;;;;5049405;28;20083;-71
2022/09/05 07:58:57;;;;;;;8.32;4.47;;;21.00;99.90;;;;;;5058550;28;20044;-71
2022/09/05 08:01:23;;;;;;;8.93;4.80;;;21.10;99.90;;;;;;5062308;28;20045;-71
2022/09/05 08:03:55;;;;;;;8.75;4.57;;;21.20;99.90;;;;;;5032592;28;20044;-71
2022/09/05 08:06:24;;;;;;;7.82;4.85;;;21.30;99.90;;;;;;5065148;28;20099;-71
2022/09/05 08:09:12;;;;;;;7.72;4.97;;;21.50;99.90;;;;;;5053789;28;20445;-72
2022/09/05 08:11:39;;;;;;;8.63;4.03;;;21.60;99.90;;;;;;5066031;28;20062;-70
2022/09/05 08:14:17;;;;;;;10.02;4.30;;;21.70;99.90;;;;;;5053911;28;20500;-71
2022/09/05 08:16:43;;;;;;;10.63;4.05;;;21.80;99.90;;;;;;5074700;28;20051;-71
2022/09/05 08:19:14;;;;;;;9.63;4.43;;;21.80;99.90;;;;;;5065539;28;20044;-71
2022/09/05 08:21:49;;;;;;;8.95;4.70;;;21.90;99.90;;;;;;5059614;28;20048;-71
2022/09/05 08:24:26;;;;;;;7.00;4.15;;;22.10;99.90;;;;;;5063888;28;20043;-72
2022/09/05 08:27:00;;;;;;;10.30;4.90;;;22.20;99.90;;;;;;5065175;28;20516;-71
2022/09/05 08:29:41;;;;;;;6.38;4.20;;;22.30;99.90;;;;;;5048222;28;20426;-72
2022/09/05 08:32:17;;;;;;;7.82;4.10;;;22.30;99.90;;;;;;5061601;28;20123;-72
2022/09/05 08:34:46;;;;;;;6.93;4.40;;;22.40;99.90;;;;;;5055405;28;20054;-71
2022/09/05 08:37:16;;;;;;;5.72;3.97;;;22.40;99.90;;;;;;5065667;28;20041;-73
2022/09/05 08:39:45;;;;;;;10.15;4.30;;;22.40;99.90;;;;;;5063864;28;20401;-72
2022/09/05 08:42:14;;;;;;;7.70;4.35;;;22.50;99.90;;;;;;5057407;28;20040;-72
2022/09/05 08:44:46;;;;;;;8.85;4.20;;;22.60;99.90;;;;;;5063832;28;20083;-72
2022/09/05 08:47:33;;;;;;;8.80;4.30;;;22.70;99.90;;;;;;5056274;28;20085;-72
2022/09/05 08:50:20;;;;;;;7.82;4.20;;;22.80;99.90;;;;;;5066151;28;20378;-72
2022/09/05 08:53:23;;;;;;;9.45;4.55;;;22.90;99.90;;;;;;5067187;28;20049;-71
2022/09/05 08:55:52;;;;;;;9.45;4.30;;;23.10;99.90;;;;;;5047808;28;20531;-71
2022/09/05 08:58:39;;;;;;;8.18;4.43;;;23.20;99.90;;;;;;5085726;28;20048;-75
2022/09/05 09:01:16;;;;;;;7.40;4.25;;;23.30;99.90;;;;;;5090959;28;20083;-71
2022/09/05 09:03:50;;;;;;;8.07;4.05;;;23.40;99.90;;;;;;5068752;28;20048;-71
2022/09/05 09:06:33;;;;;;;12.63;4.32;;;23.50;99.90;;;;;;5065654;28;20461;-72
2022/09/05 09:09:42;;;;;;;7.95;4.25;;;23.60;99.90;;;;;;5067411;28;20063;-72
2022/09/05 09:12:42;;;;;;;6.97;3.92;;;23.70;99.90;;;;;;5005651;28;20052;-72
2022/09/05 09:15:35;;;;;;;8.45;3.92;;;23.80;99.90;;;;;;5065060;28;20051;-72
2022/09/05 09:18:12;;;;;;;7.00;3.80;;;23.90;99.90;;;;;;5064648;28;20087;-72
2022/09/05 09:20:41;;;;;;;6.93;3.78;;;24.00;99.90;;;;;;5069405;28;20047;-72
2022/09/05 09:23:41;;;;;;;6.70;3.15;;;24.10;99.90;;;;;;5071151;28;20048;-71
2022/09/05 09:26:20;;;;;;;7.55;3.58;;;24.30;99.90;;;;;;5082975;28;20049;-72
2022/09/05 09:29:05;;;;;;;6.35;3.72;;;24.40;99.90;;;;;;5050732;28;20044;-72
2022/09/05 09:31:53;;;;;;;6.38;3.83;;;24.50;99.90;;;;;;5050761;28;20080;-72
2022/09/05 09:34:24;;;;;;;7.22;3.67;;;24.60;99.90;;;;;;5042819;28;20515;-72
2022/09/05 09:36:50;;;;;;;6.03;3.58;;;24.70;99.90;;;;;;5069722;28;20579;-73
2022/09/05 09:39:28;;;;;;;7.90;4.07;;;24.80;99.90;;;;;;5068928;28;20040;-72
2022/09/05 09:41:57;;;;;;;7.35;3.38;;;24.90;99.90;;;;;;5068255;28;20048;-71
2022/09/05 09:45:01;;;;;;;6.30;3.80;;;25.00;99.90;;;;;;5067584;28;20036;-71
2022/09/05 09:47:50;;;;;;;7.45;3.83;;;25.10;99.90;;;;;;5066614;28;20101;-72
2022/09/05 09:50:57;;;;;;;8.68;3.50;;;25.20;99.90;;;;;;5067426;28;20072;-72
2022/09/05 09:53:23;;;;;;;5.40;3.20;;;25.30;99.90;;;;;;5063762;28;20102;-72
2022/09/05 09:56:22;;;;;;;8.10;3.72;;;25.40;99.90;;;;;;5069968;28;20405;-72
2022/09/05 09:59:13;;;;;;;7.30;3.42;;;25.50;99.90;;;;;;5069194;28;20053;-72
2022/09/05 10:01:54;;;;;;;7.80;3.10;;;25.60;99.90;;;;;;5068624;28;20504;-72
2022/09/05 10:04:41;;;;;;;7.82;3.03;;;25.60;99.90;;;;;;5051635;28;20044;-72
2022/09/05 10:07:18;;;;;;;8.52;3.42;;;25.70;99.90;;;;;;5050765;28;20051;-72
2022/09/05 10:09:53;;;;;;;7.57;3.00;;;25.80;99.90;;;;;;5070068;28;20048;-72
2022/09/05 10:12:49;;;;;;;7.18;3.30;;;25.80;99.90;;;;;;5051268;28;20078;-72
2022/09/05 10:15:29;;;;;;;9.63;3.40;;;25.80;99.90;;;;;;5064042;28;20514;-73
2022/09/05 10:18:13;;;;;;;8.80;3.00;;;25.80;99.90;;;;;;5050946;28;20044;-72
2022/09/05 10:20:50;;;;;;;9.52;3.33;;;25.80;99.90;;;;;;5068295;28;20485;-72
2022/09/05 10:23:38;;;;;;;10.30;3.33;;;25.90;99.90;;;;;;5066715;28;20405;-70
2022/09/05 10:26:38;;;;;;;8.43;2.72;;;25.90;99.90;;;;;;5065727;28;20040;-72
2022/09/05 10:29:10;;;;;;;8.27;2.37;;;26.00;99.90;;;;;;5062747;28;20500;-72
2022/09/05 10:32:05;;;;;;;5.57;2.30;;;26.00;99.90;;;;;;5066634;28;20534;-72
2022/09/05 10:34:44;;;;;;;6.47;2.42;;;26.10;99.90;;;;;;5076196;28;20048;-71
2022/09/05 10:37:11;;;;;;;7.25;2.20;;;26.20;99.90;;;;;;5064713;28;20032;-71
2022/09/05 10:39:48;;;;;;;6.53;2.22;;;26.20;99.90;;;;;;5066746;28;20505;-72
2022/09/05 10:42:26;;;;;;;5.22;2.38;;;26.20;99.90;;;;;;5066406;28;20086;-72
2022/09/05 10:44:54;;;;;;;4.53;2.10;;;26.30;99.90;;;;;;5062485;28;20068;-73
2022/09/05 10:47:33;;;;;;;6.32;2.00;;;26.40;99.90;;;;;;5060345;28;20040;-73
2022/09/05 10:50:36;;;;;;;4.43;2.15;;;26.50;99.90;;;;;;5067569;28;20056;-72
2022/09/05 10:53:38;;;;;;;6.55;1.80;;;26.60;99.90;;;;;;5059440;28;20738;-73
2022/09/05 10:56:20;;;;;;;7.28;2.10;;;26.70;99.90;;;;;;5060968;28;20060;-71
2022/09/05 10:58:48;;;;;;;5.93;2.10;;;26.70;99.30;;;;;;5064962;28;20043;-72
2022/09/05 11:01:21;;;;;;;3.83;1.77;;;26.80;99.50;;;;;;5067792;28;20395;-74
2022/09/05 11:04:00;;;;;;;4.15;1.80;;;26.90;99.40;;;;;;5049506;28;20420;-74
2022/09/05 11:06:43;;;;;;;5.63;1.90;;;26.90;99.30;;;;;;5061256;28;20048;-74
2022/09/05 11:09:33;;;;;;;5.95;1.90;;;27.00;99.00;;;;;;5063689;28;20473;-72
2022/09/05 11:12:25;;;;;;;5.37;1.83;;;27.10;98.80;;;;;;5067428;28;20398;-70
2022/09/05 11:14:55;;;;;;;4.88;1.70;;;27.20;98.20;;;;;;5079806;28;20286;-71
2022/09/05 11:17:39;;;;;;;5.07;1.70;;;27.30;98.20;;;;;;5065088;28;20153;-71
2022/09/05 11:20:24;;;;;;;7.70;1.80;;;27.30;97.80;;;;;;5065257;28;20097;-71
2022/09/05 11:22:57;;;;;;;5.80;1.80;;;27.40;97.60;;;;;;5065872;28;20102;-71
2022/09/05 11:25:26;;;;;;;11.60;2.30;;;27.40;97.80;;;;;;5063115;28;20051;-72
2022/09/05 11:27:55;;;;;;;5.17;1.93;;;27.40;97.50;;;;;;5065799;28;20131;-69
2022/09/05 11:30:23;;;;;;;5.60;1.80;;;27.50;97.70;;;;;;5063539;28;20036;-72
2022/09/05 11:33:11;;;;;;;4.53;2.00;;;27.50;97.00;;;;;;5066285;28;20045;-72
2022/09/05 11:35:49;;;;;;;3.85;1.70;;;27.60;96.80;;;;;;5046659;28;20057;-72
2022/09/05 11:38:52;;;;;;;9.13;2.00;;;27.60;96.10;;;;;;5066854;28;20040;-73
2022/09/05 11:41:31;;;;;;;3.25;1.70;;;27.70;95.70;;;;;;5049193;28;20093;-73
2022/09/05 11:44:21;;;;;;;7.00;2.38;;;27.70;96.00;;;;;;5065350;28;20051;-73
2022/09/05 11:47:14;;;;;;;5.13;2.00;;;27.80;96.10;;;;;;5063187;28;20135;-73
2022/09/05 11:50:10;;;;;;;8.70;2.40;;;27.90;95.90;;;;;;5063555;28;20083;-73
2022/09/05 11:53:14;;;;;;;4.72;1.80;;;28.00;95.60;;;;;;5047226;28;20041;-73
2022/09/05 11:55:59;;;;;;;5.07;1.83;;;28.00;95.80;;;;;;5064089;28;20136;-73
2022/09/05 11:58:27;;;;;;;3.95;2.08;;;28.10;95.50;;;;;;5062684;28;20536;-72
2022/09/05 12:01:02;;;;;;;4.85;1.98;;;28.10;95.10;;;;;;5060192;28;20562;-73
2022/09/05 12:03:40;;;;;;;7.10;2.30;;;28.10;95.00;;;;;;5061411;28;20080;-73
2022/09/05 12:06:39;;;;;;;6.68;1.52;;;28.10;94.90;;;;;;5064578;28;20129;-73
2022/09/05 12:09:23;;;;;;;7.68;2.20;;;28.20;95.10;;;;;;5057662;28;20119;-73
2022/09/05 12:12:11;;;;;;;6.43;1.95;;;28.30;94.90;;;;;;5062631;28;20505;-73
2022/09/05 12:15:03;;;;;;;6.13;2.20;;;28.30;94.80;;;;;;5050532;28;20045;-72
2022/09/05 12:17:48;;;;;;;7.65;2.25;;;28.20;94.10;;;;;;5032822;28;20622;-73
2022/09/05 12:20:34;;;;;;;8.45;2.10;;;28.10;94.40;;;;;;5048490;28;20102;-72
2022/09/05 12:23:18;;;;;;;4.03;1.85;;;28.10;94.80;;;;;;5055000;28;20073;-72
2022/09/05 12:26:28;;;;;;;4.38;2.03;;;28.10;94.40;;;;;;5058447;28;20068;-73
2022/09/05 12:28:58;;;;;;;5.85;1.80;;;28.20;94.50;;;;;;4991345;28;20764;-72
2022/09/05 12:31:50;;;;;;;5.50;2.22;;;28.30;94.20;;;;;;4973269;28;20052;-73
2022/09/05 12:34:35;;;;;;;3.70;1.80;;;28.30;94.10;;;;;;5030194;28;20060;-73
2022/09/05 12:37:03;;;;;;;4.60;2.00;;;28.40;94.40;;;;;;5066024;28;20443;-73
2022/09/05 12:39:45;;;;;;;4.38;2.22;;;28.40;94.30;;;;;;5049942;28;20421;-73
2022/09/05 12:42:28;;;;;;;6.43;2.15;;;28.50;93.90;;;;;;5063081;28;20116;-73
2022/09/05 12:45:09;;;;;;;6.07;2.15;;;28.40;93.60;;;;;;5064500;28;20135;-73
2022/09/05 12:48:04;;;;;;;5.80;2.15;;;28.40;93.80;;;;;;5064070;28;20044;-72
2022/09/05 12:50:53;;;;;;;5.15;2.15;;;28.40;93.60;;;;;;5076821;28;20055;-73
2022/09/05 12:53:21;;;;;;;7.17;2.97;;;28.30;93.90;;;;;;5059943;28;20040;-73
2022/09/05 12:55:57;;;;;;;5.20;2.55;;;28.40;93.90;;;;;;5066364;28;20040;-73
2022/09/05 12:58:28;;;;;;;4.72;2.15;;;28.40;93.80;;;;;;5064957;28;20047;-74
2022/09/05 13:01:14;;;;;;;7.55;2.20;;;28.40;93.50;;;;;;5065993;28;20048;-72
2022/09/05 13:04:03;;;;;;;5.32;2.25;;;28.40;93.40;;;;;;5063182;28;20102;-73
2022/09/05 13:06:45;;;;;;;5.25;2.03;;;28.40;93.40;;;;;;5060894;28;20072;-73
2022/09/05 13:09:33;;;;;;;5.40;2.08;;;28.40;92.70;;;;;;5046758;28;20043;-73
2022/09/05 13:12:14;;;;;;;7.47;2.63;;;28.40;92.40;;;;;;5046092;28;20056;-73
2022/09/05 13:15:06;;;;;;;7.43;2.00;;;28.40;92.60;;;;;;5064457;28;20080;-73
2022/09/05 13:17:40;;;;;;;5.00;2.00;;;28.40;92.80;;;;;;5064057;28;20049;-73
2022/09/05 13:20:35;;;;;;;4.43;1.90;;;28.50;92.40;;;;;;5047792;28;20501;-73
2022/09/05 13:23:27;;;;;;;5.03;2.25;;;28.50;92.20;;;;;;5037299;28;20056;-73
2022/09/05 13:25:58;;;;;;;8.60;2.20;;;28.40;92.00;;;;;;5064552;28;20040;-74
2022/09/05 13:28:50;;;;;;;5.13;1.98;;;28.40;92.40;;;;;;5066298;28;20040;-73
2022/09/05 13:31:57;;;;;;;4.90;2.20;;;28.40;92.80;;;;;;5065070;28;20040;-73
2022/09/05 13:34:36;;;;;;;5.47;2.08;;;28.40;92.70;;;;;;5061854;28;20044;-73
2022/09/05 13:37:10;;;;;;;5.65;2.10;;;28.40;92.60;;;;;;5066012;28;20358;-73
2022/09/05 13:39:47;;;;;;;4.60;2.13;;;28.40;92.70;;;;;;5042946;28;20064;-74
2022/09/05 13:42:18;;;;;;;5.38;2.10;;;28.50;92.70;;;;;;5062327;28;20479;-73
2022/09/05 13:44:46;;;;;;;4.82;1.90;;;28.50;92.60;;;;;;5065862;28;20131;-73
2022/09/05 13:47:19;;;;;;;4.72;1.98;;;28.40;92.30;;;;;;5047465;28;20060;-74
2022/09/05 13:50:05;;;;;;;5.13;2.20;;;28.40;92.50;;;;;;5063039;28;20071;-73
2022/09/05 13:52:44;;;;;;;8.95;2.55;;;28.50;91.80;;;;;;5045288;28;20768;-74
2022/09/05 13:55:26;;;;;;;4.60;1.87;;;28.50;92.00;;;;;;5073739;28;20506;-73
2022/09/05 13:58:05;;;;;;;6.53;1.67;;;28.50;92.00;;;;;;5064401;28;20746;-74
2022/09/05 14:00:36;;;;;;;8.03;2.20;;;28.50;91.80;;;;;;5060140;28;20098;-74
2022/09/05 14:03:14;;;;;;;7.35;1.92;;;28.50;91.60;;;;;;5061698;28;20127;-73
2022/09/05 14:05:55;;;;;;;6.65;2.38;;;28.60;91.60;;;;;;5062340;28;20413;-74
2022/09/05 14:08:49;;;;;;;5.68;1.98;;;28.70;91.70;;;;;;5058700;28;20045;-74